createdAt,value
2018-04-26T00:01:47.562Z,59.00
2018-04-26T00:06:38.476Z,59.00
2018-04-26T00:11:29.381Z,58.70
2018-04-26T00:16:21.004Z,58.70
2018-04-26T00:21:12.631Z,58.70
2018-04-26T00:26:03.555Z,58.60
2018-04-26T00:30:55.189Z,58.80
2018-04-26T00:35:46.825Z,58.70
2018-04-26T00:40:38.485Z,58.60
2018-04-26T00:45:29.393Z,58.60
2018-04-26T00:50:21.033Z,58.70
2018-04-26T00:55:12.675Z,58.70
2018-04-26T01:00:03.581Z,58.60
2018-04-26T01:04:55.204Z,58.80
2018-04-26T01:09:46.109Z,58.70
2018-04-26T01:14:37.001Z,58.70
2018-04-26T01:19:27.910Z,58.70
2018-04-26T01:24:18.803Z,58.70
2018-04-26T01:29:09.694Z,58.70
2018-04-26T01:34:00.595Z,58.80
2018-04-26T01:38:52.215Z,58.80
2018-04-26T01:43:43.109Z,58.70
2018-04-26T01:48:34.020Z,58.90
2018-04-26T01:53:24.932Z,59.00
2018-04-26T01:58:15.820Z,58.80
2018-04-26T02:03:07.593Z,58.90
2018-04-26T02:07:58.580Z,58.80
2018-04-26T02:12:49.479Z,59.00
2018-04-26T02:17:40.379Z,58.40
2018-04-26T02:22:32.081Z,59.00
2018-04-26T02:27:22.981Z,59.00
2018-04-26T02:32:14.607Z,59.20
2018-04-26T02:37:06.230Z,59.50
2018-04-26T02:41:57.127Z,59.00
2018-04-26T02:46:48.011Z,59.00
2018-04-26T02:51:38.964Z,59.10
2018-04-26T02:56:29.881Z,59.10
2018-04-26T03:01:20.771Z,59.20
2018-04-26T03:06:11.661Z,59.20
2018-04-26T03:11:03.299Z,59.40
2018-04-26T03:15:54.989Z,59.40
2018-04-26T03:20:45.880Z,59.40
2018-04-26T03:25:36.763Z,59.40
2018-04-26T03:30:28.457Z,59.40
2018-04-26T03:35:19.370Z,59.40
2018-04-26T03:40:10.251Z,59.60
2018-04-26T03:45:01.887Z,59.50
2018-04-26T03:49:53.548Z,59.80
2018-04-26T03:54:44.485Z,59.70
2018-04-26T03:59:47.833Z,60.00
2018-04-26T04:04:51.262Z,59.90
2018-04-26T04:09:42.893Z,60.10
2018-04-26T04:14:34.584Z,60.30
2018-04-26T04:19:25.480Z,60.20
2018-04-26T04:24:16.385Z,60.30
2018-04-26T04:29:07.302Z,60.40
2018-04-26T04:33:58.175Z,60.90
2018-04-26T04:38:49.194Z,60.60
2018-04-26T04:43:40.089Z,60.40
2018-04-26T04:48:31.041Z,60.40
2018-04-26T04:53:22.068Z,60.40
2018-04-26T04:58:12.984Z,61.10
2018-04-26T05:03:03.862Z,61.40
2018-04-26T05:07:54.747Z,61.40
2018-04-26T05:12:45.640Z,61.00
2018-04-26T05:17:37.348Z,61.60
2018-04-26T05:22:28.287Z,61.50
2018-04-26T05:27:19.189Z,61.60
2018-04-26T05:32:10.093Z,61.90
2018-04-26T05:37:01.719Z,62.30
2018-04-26T05:41:52.640Z,62.30
2018-04-26T05:46:43.541Z,62.40
2018-04-26T05:51:34.456Z,62.60
2018-04-26T05:56:25.392Z,62.50
2018-04-26T06:01:16.338Z,62.60
2018-04-26T06:06:07.273Z,62.80
2018-04-26T06:10:58.181Z,62.70
2018-04-26T06:15:49.089Z,62.50
2018-04-26T06:20:40.001Z,62.40
2018-04-26T06:25:30.918Z,62.40
2018-04-26T06:30:21.825Z,62.30
2018-04-26T06:35:12.729Z,62.40
2018-04-26T06:40:03.632Z,62.30
2018-04-26T06:44:55.267Z,62.10
2018-04-26T06:49:46.912Z,62.20
2018-04-26T06:54:37.834Z,62.20
2018-04-26T06:59:28.727Z,62.10
2018-04-26T07:04:20.445Z,62.10
2018-04-26T07:09:11.335Z,62.00
2018-04-26T07:14:02.246Z,62.00
2018-04-26T07:18:53.130Z,61.90
2018-04-26T07:23:44.770Z,61.00
2018-04-26T07:28:36.417Z,61.20
2018-04-26T07:33:27.325Z,61.20
2018-04-26T07:38:18.971Z,61.40
2018-04-26T07:43:09.877Z,61.30
2018-04-26T07:48:01.526Z,61.30
2018-04-26T07:52:52.416Z,61.30
2018-04-26T07:57:44.046Z,60.90
2018-04-26T08:02:34.945Z,60.90
2018-04-26T08:07:25.854Z,61.10
2018-04-26T08:12:16.745Z,60.80
2018-04-26T08:17:07.649Z,60.70
2018-04-26T08:21:58.548Z,60.50
2018-04-26T08:26:50.201Z,60.20
2018-04-26T08:31:41.097Z,60.20
2018-04-26T08:36:32.728Z,59.80
2018-04-26T08:41:23.623Z,59.80
2018-04-26T08:46:14.499Z,59.80
2018-04-26T08:51:05.397Z,60.00
2018-04-26T08:55:57.035Z,61.20
2018-04-26T09:00:48.675Z,61.40
2018-04-26T09:05:39.577Z,61.30
2018-04-26T09:10:31.220Z,61.40
2018-04-26T09:15:22.860Z,61.30
2018-04-26T09:20:14.509Z,61.40
2018-04-26T09:25:05.395Z,61.30
2018-04-26T09:29:56.287Z,61.20
2018-04-26T09:34:47.921Z,61.80
2018-04-26T09:39:39.557Z,62.30
2018-04-26T09:44:30.472Z,62.30
2018-04-26T09:49:21.355Z,62.70
2018-04-26T09:54:12.253Z,63.20
2018-04-26T09:59:03.884Z,63.10
2018-04-26T10:04:01.828Z,63.10
2018-04-26T10:08:52.718Z,62.90
2018-04-26T10:13:43.600Z,62.90
2018-04-26T10:18:35.225Z,63.20
2018-04-26T10:23:26.161Z,63.10
2018-04-26T10:28:17.784Z,63.20
2018-04-26T10:38:27.217Z,62.70
2018-04-26T10:43:18.117Z,63.00
2018-04-26T10:48:08.999Z,62.80
2018-04-26T10:52:59.904Z,62.50
2018-04-26T10:57:50.771Z,62.30
2018-04-26T11:02:41.667Z,61.90
2018-04-26T11:07:33.312Z,61.40
2018-04-26T11:12:24.200Z,61.40
2018-04-26T11:17:15.259Z,61.20
2018-04-26T11:22:06.135Z,60.90
2018-04-26T11:26:57.087Z,60.40
2018-04-26T11:31:47.915Z,60.00
2018-04-26T11:36:38.786Z,59.50
2018-04-26T11:41:29.776Z,59.10
2018-04-26T11:46:20.685Z,58.90
2018-04-26T11:51:11.571Z,59.20
2018-04-26T11:56:03.205Z,59.20
2018-04-26T12:00:54.839Z,59.20
2018-04-26T12:05:46.502Z,59.40
2018-04-26T12:10:37.415Z,59.40
2018-04-26T12:15:28.303Z,59.00
2018-04-26T12:20:19.942Z,58.00
2018-04-26T12:25:11.581Z,57.50
2018-04-26T12:30:03.206Z,57.10
2018-04-26T12:34:54.083Z,57.00
2018-04-26T12:39:44.959Z,56.70
2018-04-26T12:44:36.590Z,55.20
2018-04-26T12:49:28.229Z,55.00
2018-04-26T12:54:19.863Z,54.60
2018-04-26T12:59:10.773Z,54.60
2018-04-26T13:04:02.412Z,54.30
2018-04-26T13:08:54.061Z,55.00
2018-04-26T13:13:44.958Z,54.90
2018-04-26T13:18:36.773Z,56.30
2018-04-26T13:23:27.678Z,56.20
2018-04-26T13:28:18.611Z,56.70
2018-04-26T13:33:09.617Z,57.10
2018-04-26T13:38:00.518Z,57.40
2018-04-26T13:42:51.437Z,57.70
2018-04-26T13:47:42.429Z,58.20
2018-04-26T13:52:33.321Z,58.00
2018-04-26T13:57:24.272Z,57.50
2018-04-26T14:02:15.219Z,57.60
2018-04-26T14:07:06.128Z,57.60
2018-04-26T14:11:57.021Z,57.30
2018-04-26T14:16:47.989Z,57.20
2018-04-26T14:21:38.878Z,57.50
2018-04-26T14:26:29.808Z,57.40
2018-04-26T14:31:20.710Z,57.90
2018-04-26T14:36:11.591Z,57.70
2018-04-26T14:41:02.501Z,57.40
2018-04-26T14:45:53.403Z,57.40
2018-04-26T14:50:44.282Z,57.30
2018-04-26T14:55:35.162Z,56.40
2018-04-26T15:00:26.048Z,56.70
2018-04-26T15:05:16.956Z,56.90
2018-04-26T15:10:07.872Z,57.10
2018-04-26T15:14:58.777Z,57.10
2018-04-26T15:19:49.667Z,57.40
2018-04-26T15:24:41.303Z,58.10
2018-04-26T15:29:32.945Z,58.40
2018-04-26T15:34:23.827Z,58.40
2018-04-26T15:39:14.895Z,58.40
2018-04-26T15:44:05.775Z,58.40
2018-04-26T15:48:56.663Z,59.00
2018-04-26T15:53:59.972Z,59.30
2018-04-26T15:59:03.393Z,59.50
2018-04-26T16:04:06.879Z,60.00
2018-04-26T16:09:10.213Z,60.20
2018-04-26T16:14:07.250Z,60.30
2018-04-26T16:19:10.570Z,60.20
2018-04-26T16:24:31.805Z,60.00
2018-04-26T16:29:38.311Z,59.90
2018-04-26T16:34:50.558Z,59.20
2018-04-26T16:39:41.546Z,59.20
2018-04-26T16:44:32.450Z,59.10
2018-04-26T16:49:23.373Z,59.00
2018-04-26T16:54:14.265Z,59.10
2018-04-26T16:59:05.155Z,59.30
2018-04-26T17:03:56.791Z,59.40
2018-04-26T17:08:48.420Z,59.40
2018-04-26T17:13:39.307Z,59.40
2018-04-26T17:18:30.222Z,59.30
2018-04-26T17:23:21.144Z,59.10
2018-04-26T17:28:12.215Z,59.10
2018-04-26T17:33:03.063Z,59.20
2018-04-26T17:37:53.991Z,59.50
2018-04-26T17:42:44.870Z,59.70
2018-04-26T17:47:36.496Z,59.70
2018-04-26T17:52:28.137Z,59.60
2018-04-26T17:57:19.773Z,59.80
2018-04-26T18:02:11.417Z,60.40
2018-04-26T18:07:02.303Z,59.80
2018-04-26T18:11:53.931Z,59.80
2018-04-26T18:16:44.815Z,59.90
2018-04-26T18:21:35.702Z,59.60
2018-04-26T18:26:27.322Z,59.60
2018-04-26T18:31:18.946Z,59.40
2018-04-26T18:36:09.822Z,59.40
2018-04-26T18:41:00.732Z,59.40
2018-04-26T18:45:51.635Z,59.30
2018-04-26T18:50:42.529Z,59.30
2018-04-26T18:55:34.156Z,59.20
2018-04-26T19:00:25.031Z,59.20
2018-04-26T19:05:15.923Z,59.20
2018-04-26T19:10:06.806Z,59.20
2018-04-26T19:14:57.687Z,60.30
2018-04-26T19:19:48.570Z,60.40
2018-04-26T19:24:39.464Z,60.30
2018-04-26T19:29:30.351Z,60.20
2018-04-26T19:34:21.261Z,60.00
2018-04-26T19:39:12.161Z,60.30
2018-04-26T19:44:03.062Z,60.40
2018-04-26T19:48:53.950Z,60.50
2018-04-26T19:53:44.835Z,60.60
2018-04-26T19:58:35.720Z,60.70
2018-04-26T20:03:26.613Z,60.70
2018-04-26T20:08:18.248Z,60.80
2018-04-26T20:13:09.879Z,60.90
2018-04-26T20:18:01.565Z,60.90
2018-04-26T20:22:52.508Z,60.80
2018-04-26T20:27:44.229Z,61.10
2018-04-26T20:32:35.133Z,61.10
2018-04-26T20:37:26.019Z,61.30
2018-04-26T20:42:17.716Z,61.40
2018-04-26T20:47:08.633Z,61.40
2018-04-26T20:51:59.536Z,61.60
2018-04-26T20:56:50.477Z,61.70
2018-04-26T21:01:41.389Z,61.80
2018-04-26T21:06:32.275Z,61.60
2018-04-26T21:11:23.233Z,61.70
2018-04-26T21:16:14.920Z,61.10
2018-04-26T21:21:05.980Z,61.60
2018-04-26T21:25:56.958Z,61.60
2018-04-26T21:30:47.908Z,61.40
2018-04-26T21:35:38.974Z,61.40
2018-04-26T21:40:30.536Z,61.40
2018-04-26T21:45:21.437Z,61.30
2018-04-26T21:50:19.299Z,61.30
2018-04-26T21:55:16.369Z,61.30
2018-04-26T22:00:13.562Z,61.30
2018-04-26T22:05:13.695Z,61.50
2018-04-26T22:10:04.682Z,61.40
2018-04-26T22:14:55.577Z,61.40
2018-04-26T22:19:46.481Z,61.60
2018-04-26T22:24:37.480Z,61.40
2018-04-26T22:29:28.380Z,61.40
2018-04-26T22:34:20.013Z,61.50
2018-04-26T22:39:11.710Z,61.60
2018-04-26T22:44:02.613Z,61.60
2018-04-26T22:48:53.538Z,61.50
2018-04-26T22:53:44.455Z,61.60
2018-04-26T22:58:35.372Z,61.80
2018-04-26T23:03:26.265Z,61.80
2018-04-26T23:08:17.169Z,61.70
2018-04-26T23:13:08.128Z,61.70
2018-04-26T23:17:59.062Z,61.90
2018-04-26T23:22:49.980Z,62.00
2018-04-26T23:27:40.874Z,62.00
2018-04-26T23:32:31.754Z,62.10
2018-04-26T23:37:23.424Z,62.30
2018-04-26T23:42:14.345Z,62.20
2018-04-26T23:47:05.236Z,62.30
2018-04-26T23:51:56.127Z,62.30
2018-04-26T23:56:47.009Z,62.30
